Time;durP1;ratioP1;P1;durP2;ratioP2;P2;SDS_P1;SDS_P2;PMS_P1;PMS_P2;Temp;Humidity;BMP_temperature;BMP_pressure;BME280_temperature;BME280_humidity;BME280_pressure;Samples;Min_cycle;Max_cycle;Signal;HPM_P1;HPM_P2
2024/03/07 00:02:21;;;;;;;1.10;1.10;;;;;;;1.21;100.00;99071.50;6162349;23;20064;-90
2024/03/07 00:04:47;;;;;;;1.10;1.10;;;;;;;1.52;100.00;99073.66;6162296;23;20009;-94
2024/03/07 00:07:13;;;;;;;1.10;1.10;;;;;;;1.17;100.00;99074.72;6138131;23;20006;-96
2024/03/07 00:09:39;;;;;;;1.00;1.00;;;;;;;1.11;100.00;99071.66;6168524;23;20106;-93
2024/03/07 00:12:08;;;;;;;1.10;1.10;;;;;;;0.88;100.00;99072.63;6142261;23;20017;-95
2024/03/07 00:14:38;;;;;;;1.08;1.08;;;;;;;0.77;100.00;99081.47;6168938;23;20052;-91
2024/03/07 00:17:03;;;;;;;1.10;1.10;;;;;;;1.43;100.00;99071.28;6168511;23;20029;-93
2024/03/07 00:19:31;;;;;;;1.10;1.10;;;;;;;1.70;100.00;99066.13;6168460;23;20020;-93
2024/03/07 00:21:57;;;;;;;1.10;1.10;;;;;;;1.25;100.00;99073.56;6192304;23;20508;-92
2024/03/07 00:24:23;;;;;;;1.00;1.00;;;;;;;1.30;100.00;99068.63;6167806;23;20009;-94
2024/03/07 00:26:52;;;;;;;0.90;0.90;;;;;;;1.10;100.00;99071.53;6145807;23;20024;-90
2024/03/07 00:29:19;;;;;;;1.00;1.00;;;;;;;0.91;100.00;99078.13;6174494;23;20086;-94
2024/03/07 00:31:46;;;;;;;1.00;1.00;;;;;;;0.71;100.00;99070.50;6175535;23;20005;-92
2024/03/07 00:34:16;;;;;;;1.02;1.02;;;;;;;0.60;100.00;99071.44;6175913;23;20243;-90
2024/03/07 00:36:45;;;;;;;1.10;1.10;;;;;;;0.90;100.00;99076.28;6153051;23;20029;-90
2024/03/07 00:39:11;;;;;;;1.02;1.02;;;;;;;1.35;100.00;99071.59;6204108;23;20005;-90
2024/03/07 00:41:41;;;;;;;1.10;1.10;;;;;;;1.21;100.00;99068.88;6152546;23;20040;-92
2024/03/07 00:44:10;;;;;;;1.00;1.00;;;;;;;0.84;100.00;99069.69;6176596;23;20045;-91
2024/03/07 00:46:36;;;;;;;1.00;1.00;;;;;;;1.16;100.00;99070.28;6149126;23;20002;-93
2024/03/07 00:49:05;;;;;;;1.00;1.00;;;;;;;1.12;100.00;99064.69;6172414;23;20045;-92
2024/03/07 00:51:32;;;;;;;1.10;1.10;;;;;;;1.22;100.00;99059.28;6151648;23;20009;-90
2024/03/07 00:53:59;;;;;;;1.00;1.00;;;;;;;0.95;100.00;99061.75;6166215;23;20002;-92
2024/03/07 00:56:26;;;;;;;1.10;1.10;;;;;;;1.03;100.00;99060.59;6141935;23;20022;-94
2024/03/07 00:58:53;;;;;;;1.00;1.00;;;;;;;0.69;100.00;99059.88;6138956;23;20020;-93
2024/03/07 01:01:19;;;;;;;1.10;1.10;;;;;;;1.13;100.00;99059.53;6136083;23;20149;-93
2024/03/07 01:03:45;;;;;;;1.00;1.00;;;;;;;0.70;100.00;99058.16;6111270;23;20029;-94
2024/03/07 01:06:11;;;;;;;1.00;1.00;;;;;;;0.84;100.00;99056.53;6135546;23;20018;-94
2024/03/07 01:08:38;;;;;;;1.10;1.10;;;;;;;1.02;100.00;99053.53;6134390;23;20022;-96
2024/03/07 01:11:09;;;;;;;1.10;1.10;;;;;;;1.01;100.00;99049.09;6133213;23;20010;-96
2024/03/07 01:13:39;;;;;;;1.10;1.10;;;;;;;1.02;100.00;99050.00;6132999;23;20057;-95
2024/03/07 01:16:10;;;;;;;1.02;1.02;;;;;;;0.64;100.00;99058.66;6135397;23;20021;-95
2024/03/07 01:18:37;;;;;;;1.10;1.10;;;;;;;0.91;100.00;99048.28;6110030;23;20037;-94
2024/03/07 01:21:04;;;;;;;1.08;1.08;;;;;;;0.73;100.00;99053.16;6111050;23;20044;-94
2024/03/07 01:23:31;;;;;;;1.00;1.00;;;;;;;0.64;100.00;99049.84;6164365;23;20149;-93
2024/03/07 01:25:58;;;;;;;1.10;1.10;;;;;;;1.02;100.00;99045.66;6105931;23;20404;-93
2024/03/07 01:28:29;;;;;;;1.10;1.10;;;;;;;1.18;100.00;99051.97;6133505;23;20293;-94
2024/03/07 01:30:56;;;;;;;1.10;1.10;;;;;;;1.21;100.00;99045.22;6134498;23;20006;-95
2024/03/07 01:33:22;;;;;;;1.00;1.00;;;;;;;0.91;100.00;99046.59;6108270;23;20025;-95
2024/03/07 01:35:48;;;;;;;1.00;1.00;;;;;;;0.48;100.00;99042.59;6106097;23;20022;-94
2024/03/07 01:38:14;;;;;;;1.10;1.10;;;;;;;0.52;100.00;99044.59;6131448;23;20052;-90
2024/03/07 01:40:44;;;;;;;1.10;1.10;;;;;;;0.73;100.00;99040.03;6133391;23;20017;-93
2024/03/07 01:43:11;;;;;;;1.10;1.10;;;;;;;0.48;100.00;99035.63;6137620;23;20020;-94
2024/03/07 01:45:37;;;;;;;1.10;1.10;;;;;;;0.08;100.00;99036.09;6137461;23;20010;-90
2024/03/07 01:48:08;;;;;;;1.00;1.00;;;;;;;-0.27;100.00;99032.66;6138534;23;20012;-94
2024/03/07 01:50:39;;;;;;;1.00;1.00;;;;;;;-0.27;100.00;99035.28;6141156;23;20258;-91
2024/03/07 01:53:09;;;;;;;1.10;1.10;;;;;;;0.45;100.00;99027.50;6149252;23;20026;-89
2024/03/07 01:55:35;;;;;;;1.10;1.10;;;;;;;0.36;100.00;99025.94;6185107;23;20069;-93
2024/03/07 01:58:03;;;;;;;1.10;1.10;;;;;;;0.20;100.00;99026.53;6179088;23;20004;-93
2024/03/07 02:00:29;;;;;;;1.10;1.10;;;;;;;0.17;100.00;99021.03;6157469;23;20012;-91
2024/03/07 02:02:55;;;;;;;1.10;1.10;;;;;;;0.05;100.00;99020.13;6183369;23;19997;-90
2024/03/07 02:05:21;;;;;;;1.00;1.00;;;;;;;-0.08;100.00;99016.59;6183084;23;20024;-90
2024/03/07 02:07:48;;;;;;;1.08;1.08;;;;;;;0.02;100.00;99022.53;6182897;23;20005;-90
2024/03/07 02:10:14;;;;;;;1.10;1.10;;;;;;;-0.18;100.00;99021.94;6157411;23;20001;-92
2024/03/07 02:12:42;;;;;;;1.08;1.08;;;;;;;-0.46;100.00;99015.41;6158618;23;20067;-90
2024/03/07 02:15:08;;;;;;;1.10;1.10;;;;;;;-0.49;100.00;99021.31;6157104;23;20032;-91
2024/03/07 02:17:36;;;;;;;1.10;1.10;;;;;;;-0.48;100.00;99024.84;6169570;23;20072;-90
2024/03/07 02:20:04;;;;;;;1.10;1.10;;;;;;;-0.66;100.00;99020.03;6126822;23;20026;-91
2024/03/07 02:22:30;;;;;;;1.00;1.00;;;;;;;-0.46;100.00;99016.31;6147538;23;20091;-91
2024/03/07 02:24:57;;;;;;;1.10;1.10;;;;;;;-0.45;100.00;99007.66;6123346;23;19998;-91
2024/03/07 02:27:23;;;;;;;1.00;1.00;;;;;;;-0.84;100.00;99006.41;6097862;23;20009;-90
2024/03/07 02:29:51;;;;;;;1.10;1.10;;;;;;;-1.00;100.00;99013.91;6165740;22;20068;-91
2024/03/07 02:32:19;;;;;;;1.05;1.05;;;;;;;-0.85;100.00;99004.59;6203687;23;20076;-89
2024/03/07 02:34:47;;;;;;;1.10;1.10;;;;;;;-0.60;100.00;99010.03;6156280;23;20084;-90
2024/03/07 02:37:13;;;;;;;1.10;1.10;;;;;;;-0.66;100.00;99001.69;6199483;23;20024;-89
2024/03/07 02:39:39;;;;;;;1.10;1.10;;;;;;;-0.96;100.00;99007.16;6176306;23;20025;-90
2024/03/07 02:44:41;;;;;;;1.10;1.10;;;;;;;-0.87;100.00;99002.66;6202871;23;19904;-90
2024/03/07 02:47:08;;;;;;;1.10;1.10;;;;;;;-0.77;100.00;98994.69;6181112;23;20057;-89
2024/03/07 02:49:33;;;;;;;1.10;1.10;;;;;;;-0.49;100.00;99002.06;6206042;23;20001;-90
2024/03/07 02:51:59;;;;;;;1.10;1.10;;;;;;;-0.70;100.00;99002.25;6178012;23;20052;-92
2024/03/07 02:54:24;;;;;;;1.10;1.10;;;;;;;-0.17;100.00;99004.50;6142512;23;20024;-90
2024/03/07 02:56:50;;;;;;;1.10;1.10;;;;;;;-0.42;100.00;99009.63;6175121;23;20013;-89
2024/03/07 02:59:16;;;;;;;1.10;1.10;;;;;;;-0.73;100.00;98996.75;6202498;23;20020;-90
2024/03/07 03:01:42;;;;;;;1.10;1.10;;;;;;;-0.83;100.00;99003.00;6173356;23;20012;-90
2024/03/07 03:04:07;;;;;;;1.10;1.10;;;;;;;-0.75;100.00;99006.22;6149170;23;20037;-90
2024/03/07 03:06:33;;;;;;;1.10;1.10;;;;;;;-0.82;100.00;99001.28;6143096;23;20021;-91
2024/03/07 03:08:58;;;;;;;1.10;1.10;;;;;;;-0.90;100.00;99003.34;6138155;23;20032;-92
2024/03/07 03:11:25;;;;;;;1.10;1.10;;;;;;;-1.09;100.00;99010.56;6161107;23;20020;-92
2024/03/07 03:13:51;;;;;;;1.10;1.10;;;;;;;-1.23;100.00;99006.84;6164800;23;20460;-92
2024/03/07 03:16:17;;;;;;;1.10;1.10;;;;;;;-1.20;100.00;99011.38;6165238;23;20060;-91
2024/03/07 03:18:43;;;;;;;1.10;1.10;;;;;;;-1.42;100.00;99004.47;6162904;23;20021;-93
2024/03/07 03:21:08;;;;;;;1.10;1.10;;;;;;;-1.18;100.00;99002.88;6163757;23;20005;-93
2024/03/07 03:23:34;;;;;;;1.02;1.02;;;;;;;-1.43;100.00;99012.19;6168581;23;20009;-88
2024/03/07 03:26:00;;;;;;;1.10;1.10;;;;;;;-1.59;100.00;98999.56;6197421;23;20016;-92
2024/03/07 03:28:25;;;;;;;1.10;1.10;;;;;;;-1.74;100.00;99012.34;6176950;23;20015;-89
2024/03/07 03:30:51;;;;;;;1.13;1.13;;;;;;;-1.79;100.00;99010.13;6143870;23;20005;-91
2024/03/07 03:33:17;;;;;;;1.00;1.00;;;;;;;-1.62;100.00;99004.59;6159204;23;20048;-94
2024/03/07 03:35:43;;;;;;;1.10;1.10;;;;;;;-1.79;100.00;99004.91;6164776;23;20017;-92
2024/03/07 03:38:09;;;;;;;1.20;1.20;;;;;;;-1.93;100.00;99007.31;6203144;23;20048;-93
2024/03/07 03:40:35;;;;;;;1.10;1.10;;;;;;;-1.89;100.00;99005.88;6198762;23;20021;-91
2024/03/07 03:43:01;;;;;;;1.10;1.10;;;;;;;-1.98;100.00;98999.88;6202184;23;20012;-90
2024/03/07 03:45:26;;;;;;;1.10;1.10;;;;;;;-1.89;100.00;99008.47;6150845;23;20020;-93
2024/03/07 03:47:52;;;;;;;1.10;1.10;;;;;;;-2.12;100.00;99006.59;6142208;23;20005;-93
2024/03/07 03:50:18;;;;;;;1.10;1.10;;;;;;;-2.07;100.00;99005.25;6137523;23;20060;-94
2024/03/07 03:52:44;;;;;;;1.13;1.13;;;;;;;-2.10;100.00;99007.66;6165047;23;20012;-94
2024/03/07 03:55:10;;;;;;;1.20;1.20;;;;;;;-2.14;100.00;99005.56;6161023;23;20020;-93
2024/03/07 03:57:36;;;;;;;1.10;1.10;;;;;;;-2.15;100.00;99003.75;6140306;23;20020;-93
2024/03/07 04:00:09;;;;;;;1.10;1.10;;;;;;;-2.07;100.00;99006.16;6139804;23;20068;-93
2024/03/07 04:02:48;;;;;;;1.10;1.10;;;;;;;-2.22;100.00;99001.38;6191578;23;20012;-91
2024/03/07 04:05:15;;;;;;;1.10;1.10;;;;;;;-2.32;100.00;99000.63;6138979;23;20036;-93
2024/03/07 04:07:41;;;;;;;1.10;1.10;;;;;;;-2.26;100.00;99010.66;6161134;23;20408;-91
2024/03/07 04:10:08;;;;;;;1.20;1.20;;;;;;;-2.43;100.00;99010.97;6160506;23;20455;-93
2024/03/07 04:12:40;;;;;;;1.10;1.10;;;;;;;-2.43;100.00;99009.28;6137721;23;20013;-94
2024/03/07 04:15:13;;;;;;;1.00;1.00;;;;;;;-2.60;100.00;99005.25;6160524;23;20036;-92
2024/03/07 04:17:39;;;;;;;1.10;1.10;;;;;;;-2.45;100.00;99003.00;6189220;23;20013;-93
2024/03/07 04:20:06;;;;;;;1.10;1.10;;;;;;;-2.38;100.00;99002.75;6173529;23;20221;-93
2024/03/07 04:22:38;;;;;;;1.10;1.10;;;;;;;-2.37;100.00;99006.25;6179329;23;20012;-94
2024/03/07 04:25:06;;;;;;;1.10;1.10;;;;;;;-2.39;100.00;99003.53;6142804;23;20021;-90
2024/03/07 04:27:32;;;;;;;1.20;1.20;;;;;;;-2.32;100.00;99005.84;6135152;23;20020;-92
2024/03/07 04:29:58;;;;;;;1.20;1.20;;;;;;;-2.47;100.00;98994.13;6135523;23;20047;-92
2024/03/07 04:32:23;;;;;;;1.10;1.10;;;;;;;-2.01;100.00;99000.56;6160951;23;20040;-93
2024/03/07 04:34:49;;;;;;;1.10;1.10;;;;;;;-2.03;100.00;98995.97;6185121;23;20180;-93
2024/03/07 04:37:14;;;;;;;1.10;1.10;;;;;;;-2.06;100.00;98996.63;6135328;23;20520;-93
2024/03/07 04:39:40;;;;;;;1.10;1.10;;;;;;;-1.85;100.00;98995.78;6159509;23;20013;-93
2024/03/07 04:42:07;;;;;;;1.20;1.20;;;;;;;-1.81;100.00;99004.78;6158429;23;20084;-91
2024/03/07 04:44:35;;;;;;;1.00;1.00;;;;;;;-1.89;100.00;98993.69;6185719;23;20005;-92
2024/03/07 04:47:02;;;;;;;1.20;1.20;;;;;;;-1.80;100.00;98996.16;6161280;23;20017;-93
2024/03/07 04:49:29;;;;;;;1.10;1.10;;;;;;;-1.75;100.00;98989.59;6163403;23;20005;-93
2024/03/07 04:51:57;;;;;;;1.20;1.20;;;;;;;-1.76;100.00;98999.94;6163415;23;20036;-93
2024/03/07 04:54:23;;;;;;;1.00;1.00;;;;;;;-1.77;100.00;98991.19;6190725;23;20009;-93
2024/03/07 04:56:50;;;;;;;1.10;1.10;;;;;;;-1.95;100.00;98995.81;6170156;23;20013;-93
2024/03/07 04:59:18;;;;;;;1.00;1.00;;;;;;;-2.01;100.00;98994.38;6172205;23;20028;-92
2024/03/07 05:01:43;;;;;;;;;;;;;;;-2.21;100.00;99003.22;6203020;23;20068;-93
2024/03/07 05:04:10;;;;;;;1.20;1.20;;;;;;;-2.38;100.00;98999.22;6152889;23;19915;-93
2024/03/07 05:06:36;;;;;;;1.20;1.20;;;;;;;-2.26;100.00;98989.75;6179677;23;20023;-92
2024/03/07 05:09:03;;;;;;;1.20;1.20;;;;;;;-2.14;100.00;99000.34;6206503;23;20005;-92
2024/03/07 05:11:32;;;;;;;1.20;1.20;;;;;;;-2.43;100.00;98983.16;6205863;23;20008;-93
2024/03/07 05:13:58;;;;;;;1.10;1.10;;;;;;;-2.36;100.00;98992.41;6182734;23;19997;-91
2024/03/07 05:16:35;;;;;;;1.08;1.08;;;;;;;-2.60;100.00;99001.72;6176229;23;20043;-93
2024/03/07 05:19:02;;;;;;;1.05;1.05;;;;;;;-2.76;100.00;99002.13;6152095;23;20048;-91
2024/03/07 05:24:03;;;;;;;1.20;1.20;;;;;;;-2.63;100.00;98991.03;6165449;23;20012;-94
2024/03/07 05:26:33;;;;;;;1.10;1.10;;;;;;;-2.67;100.00;98996.78;6167920;23;20017;-94
2024/03/07 05:29:07;;;;;;;1.10;1.10;;;;;;;-2.57;100.00;98999.38;6191651;23;20012;-93
2024/03/07 05:31:34;;;;;;;1.10;1.10;;;;;;;-2.94;100.00;98995.34;6162476;23;20016;-93
2024/03/07 05:34:08;;;;;;;1.20;1.20;;;;;;;-2.94;100.00;98992.72;6144601;23;20024;-94
2024/03/07 05:36:44;;;;;;;1.20;1.20;;;;;;;-2.89;100.00;98994.03;6142875;23;20021;-94
2024/03/07 05:39:11;;;;;;;1.10;1.10;;;;;;;-3.14;100.00;98993.63;6162535;23;20017;-94
2024/03/07 05:41:38;;;;;;;1.20;1.20;;;;;;;-3.16;100.00;98997.81;6201405;23;20009;-92
2024/03/07 05:44:08;;;;;;;1.10;1.10;;;;;;;-3.15;100.00;98997.03;6209371;23;20013;-91
2024/03/07 05:46:50;;;;;;;1.20;1.20;;;;;;;-3.17;100.00;98995.97;6156730;23;20012;-93
2024/03/07 05:49:20;;;;;;;1.10;1.10;;;;;;;-2.89;100.00;98989.72;6180889;23;20065;-94
2024/03/07 05:51:59;;;;;;;1.10;1.10;;;;;;;-2.95;100.00;98984.00;6181555;23;20001;-92
2024/03/07 05:54:36;;;;;;;1.20;1.20;;;;;;;-3.10;100.00;98986.22;6181266;23;20001;-92
2024/03/07 05:57:17;;;;;;;1.10;1.10;;;;;;;-2.76;100.00;98989.06;6157924;23;20021;-93
2024/03/07 05:59:42;;;;;;;1.20;1.20;;;;;;;-2.92;100.00;98984.25;6177146;23;20001;-94
2024/03/07 06:02:44;;;;;;;1.20;1.20;;;;;;;-2.96;100.00;98984.78;6203324;23;20071;-92
2024/03/07 06:05:15;;;;;;;1.13;1.13;;;;;;;-3.01;100.00;98986.09;6178040;23;20012;-91
2024/03/07 06:07:41;;;;;;;1.10;1.10;;;;;;;-2.81;100.00;98994.69;6206668;23;20120;-93
2024/03/07 06:10:11;;;;;;;1.17;1.17;;;;;;;-2.78;100.00;98990.63;6178332;23;20008;-93
2024/03/07 06:12:37;;;;;;;1.10;1.10;;;;;;;-2.70;100.00;98986.97;6160347;23;20021;-94
2024/03/07 06:15:03;;;;;;;1.20;1.20;;;;;;;-2.77;100.00;98982.03;6160509;23;20008;-93
2024/03/07 06:17:29;;;;;;;1.10;1.10;;;;;;;-2.82;100.00;98979.81;6160180;23;20469;-93
2024/03/07 06:19:54;;;;;;;1.20;1.20;;;;;;;-2.54;100.00;98978.72;6160062;23;20040;-91
2024/03/07 06:22:19;;;;;;;1.20;1.20;;;;;;;-2.58;100.00;98977.56;6160715;23;20013;-94
2024/03/07 06:24:45;;;;;;;1.10;1.10;;;;;;;-2.25;100.00;98978.56;6135596;23;20090;-93
2024/03/07 06:27:26;;;;;;;1.10;1.10;;;;;;;-2.04;100.00;98975.88;6161532;23;20079;-95
2024/03/07 06:29:53;;;;;;;1.10;1.10;;;;;;;-1.83;100.00;98973.28;6161107;23;20449;-92
2024/03/07 06:32:18;;;;;;;1.10;1.10;;;;;;;-1.66;100.00;98976.34;6136893;23;20049;-92
2024/03/07 06:34:47;;;;;;;1.10;1.10;;;;;;;-1.52;100.00;98974.84;6136387;23;20047;-93
2024/03/07 06:37:12;;;;;;;1.10;1.10;;;;;;;-1.44;100.00;98966.78;6160862;23;20000;-91
2024/03/07 06:39:43;;;;;;;1.10;1.10;;;;;;;-1.27;100.00;98965.50;6136110;23;20017;-90
2024/03/07 06:42:27;;;;;;;1.10;1.10;;;;;;;-0.90;100.00;98965.75;6164064;23;20084;-90
2024/03/07 06:44:53;;;;;;;1.10;1.10;;;;;;;-0.79;100.00;98968.41;6160520;23;20009;-89
2024/03/07 06:47:18;;;;;;;1.10;1.10;;;;;;;-0.60;100.00;98975.06;6160316;23;20059;-90
2024/03/07 06:49:47;;;;;;;1.10;1.10;;;;;;;-0.31;100.00;98972.00;6160183;23;20059;-89
2024/03/07 06:52:30;;;;;;;1.08;1.08;;;;;;;-0.17;100.00;98973.94;6186338;23;20017;-88
2024/03/07 06:54:56;;;;;;;1.10;1.10;;;;;;;0.21;96.49;98974.16;6185429;23;20013;-91
2024/03/07 06:57:23;;;;;;;1.10;1.10;;;;;;;0.36;95.67;98976.97;6158459;23;20012;-91
2024/03/07 06:59:50;;;;;;;1.10;1.10;;;;;;;0.51;94.59;98969.28;6133475;23;20449;-91
2024/03/07 07:02:15;;;;;;;1.10;1.10;;;;;;;0.68;94.84;98966.16;6157091;23;20017;-91
2024/03/07 07:04:41;;;;;;;1.10;1.10;;;;;;;0.79;95.07;98966.94;6133955;23;20020;-93
2024/03/07 07:07:10;;;;;;;1.10;1.10;;;;;;;1.00;94.53;98967.50;6158589;23;20068;-94
2024/03/07 07:09:40;;;;;;;1.10;1.10;;;;;;;1.25;94.61;98962.28;6134181;23;20040;-94
2024/03/07 07:12:06;;;;;;;1.10;1.10;;;;;;;1.50;92.44;98970.09;6161115;23;20020;-93
2024/03/07 07:14:32;;;;;;;1.10;1.10;;;;;;;1.64;91.47;98960.53;6145677;23;20052;-92
2024/03/07 07:17:01;;;;;;;1.10;1.10;;;;;;;1.69;90.15;98967.91;6149291;23;20020;-90
2024/03/07 07:43:45;;;;;;;1.00;1.00;;;;;;;1.44;88.41;98953.94;6180847;23;20096;-92
2024/03/07 07:48:56;;;;;;;1.10;1.10;;;;;;;1.41;88.26;98961.59;6135490;23;20029;-91
2024/03/07 07:51:26;;;;;;;1.10;1.10;;;;;;;1.33;86.22;98954.88;6167598;23;20005;-91
2024/03/07 07:53:56;;;;;;;1.10;1.10;;;;;;;1.43;86.97;98947.72;6145178;23;20983;-89
2024/03/07 07:56:24;;;;;;;1.10;1.10;;;;;;;1.56;89.38;98951.19;6158450;23;20005;-89
2024/03/07 07:58:52;;;;;;;1.05;1.05;;;;;;;1.44;85.35;98938.16;6158576;23;20005;-89
2024/03/07 08:01:20;;;;;;;1.10;1.10;;;;;;;1.52;86.81;98942.19;6182422;23;20003;-89
2024/03/07 08:22:45;;;;;;;1.00;1.00;;;;;;;2.57;86.33;98935.03;6129543;23;21260;-90
2024/03/07 08:25:14;;;;;;;1.10;1.10;;;;;;;2.31;83.90;98926.41;6191401;23;20079;-90
2024/03/07 08:27:42;;;;;;;1.05;1.05;;;;;;;2.60;85.62;98943.16;6225495;23;20017;-93
2024/03/07 08:30:15;;;;;;;1.02;1.02;;;;;;;2.59;83.01;98928.16;6195140;23;20016;-93
2024/03/07 08:32:42;;;;;;;1.10;1.10;;;;;;;2.61;83.75;98938.78;6176372;23;20005;-96
2024/03/07 08:35:09;;;;;;;1.10;1.10;;;;;;;2.61;82.66;98926.53;6205967;23;20019;-92
2024/03/07 08:37:40;;;;;;;1.05;1.05;;;;;;;2.99;82.55;98935.91;6232212;23;20024;-93
2024/03/07 08:40:19;;;;;;;1.00;1.00;;;;;;;3.05;82.09;98917.84;6205497;23;20043;-90
2024/03/07 08:42:47;;;;;;;1.10;1.10;;;;;;;3.57;83.23;98919.25;6126378;23;20445;-93
2024/03/07 08:47:57;;;;;;;1.00;1.00;;;;;;;3.88;79.28;98910.53;6191445;23;20024;-92
2024/03/07 08:50:26;;;;;;;1.00;1.00;;;;;;;3.34;79.43;98916.97;6199811;23;20013;-91
2024/03/07 08:52:52;;;;;;;;;;;;;;;3.81;79.25;98914.50;6175901;23;20012;-90
2024/03/07 08:55:21;;;;;;;1.10;1.10;;;;;;;3.96;77.34;98911.84;6202574;23;19935;-90
2024/03/07 08:57:49;;;;;;;1.00;1.00;;;;;;;4.04;78.51;98918.50;6173693;23;20084;-90
2024/03/07 09:00:26;;;;;;;0.93;0.93;;;;;;;4.07;77.38;98907.16;6170702;23;20028;-91
2024/03/07 09:02:59;;;;;;;1.10;1.10;;;;;;;5.88;71.52;98902.84;6168120;23;20013;-91
2024/03/07 09:05:26;;;;;;;1.00;1.00;;;;;;;6.37;71.17;98901.72;6173709;23;20043;-94
2024/03/07 09:07:57;;;;;;;0.90;0.90;;;;;;;6.74;69.91;98898.19;6166461;23;20024;-90
2024/03/07 09:10:25;;;;;;;0.90;0.90;;;;;;;7.16;66.66;98893.94;6197540;23;20013;-92
2024/03/07 09:13:44;;;;;;;;;;;;;;;;;;;;;
2024/03/07 09:17:27;;;;;;;;;;;;;;;;;;;;;
2024/03/07 09:24:20;;;;;;;;;;;;;;;;;;;;;
2024/03/07 09:45:29;;;;;;;0.60;0.60;;;;;;;7.84;61.56;98874.78;6196872;23;20087;-90
2024/03/07 09:47:55;;;;;;;0.80;0.80;;;;;;;7.22;65.62;98874.72;6207463;23;20016;-91
2024/03/07 09:50:21;;;;;;;0.70;0.70;;;;;;;8.48;63.04;98864.16;6178519;23;20003;-91
2024/03/07 09:52:52;;;;;;;0.75;0.75;;;;;;;9.40;59.89;98864.97;6152400;23;20021;-92
2024/03/07 09:55:18;;;;;;;0.70;0.70;;;;;;;7.65;62.30;98867.78;6140154;23;20017;-91
2024/03/07 09:57:46;;;;;;;0.90;0.90;;;;;;;6.73;67.02;98875.16;6163716;23;20346;-90
2024/03/07 10:00:22;;;;;;;0.80;0.80;;;;;;;7.37;64.69;98875.41;6163045;23;20700;-90
2024/03/07 10:02:58;;;;;;;0.80;0.80;;;;;;;7.04;65.34;98881.03;6185906;23;20013;-90
2024/03/07 10:05:27;;;;;;;0.90;0.90;;;;;;;7.42;64.54;98868.53;6160973;23;20112;-91
2024/03/07 10:07:52;;;;;;;0.70;0.70;;;;;;;7.78;62.50;98865.66;6159632;23;20020;-91
2024/03/07 10:10:21;;;;;;;0.90;0.90;;;;;;;7.66;65.16;98874.00;6134267;23;20013;-91
2024/03/07 10:12:48;;;;;;;0.70;0.70;;;;;;;7.72;64.43;98875.19;6158443;23;20024;-90
2024/03/07 10:15:15;;;;;;;0.80;0.80;;;;;;;8.22;62.51;98865.72;6160115;23;20037;-91
2024/03/07 10:17:42;;;;;;;0.70;0.70;;;;;;;7.15;64.46;98862.94;6134057;23;20005;-90
2024/03/07 10:20:13;;;;;;;0.80;0.80;;;;;;;6.85;65.90;98873.06;6185465;23;20464;-90
2024/03/07 10:22:39;;;;;;;0.90;0.90;;;;;;;8.06;64.51;98862.41;6184930;23;20441;-92
2024/03/07 10:25:05;;;;;;;0.90;0.90;;;;;;;8.13;61.69;98869.78;6158926;23;19997;-91
2024/03/07 10:27:31;;;;;;;0.80;0.80;;;;;;;9.00;58.99;98855.50;6158334;23;20016;-90
2024/03/07 10:29:56;;;;;;;0.80;0.80;;;;;;;7.70;63.15;98860.91;6184228;23;20818;-91
2024/03/07 10:32:23;;;;;;;0.80;0.80;;;;;;;7.07;65.66;98865.25;6133473;23;20100;-89
2024/03/07 10:34:56;;;;;;;0.80;0.80;;;;;;;7.25;63.93;98862.50;6133353;23;20092;-91
2024/03/07 10:37:28;;;;;;;0.90;0.90;;;;;;;7.52;62.93;98870.78;6156067;23;20016;-90
2024/03/07 10:39:53;;;;;;;0.90;0.90;;;;;;;7.57;63.42;98862.97;6158064;23;20012;-90
2024/03/07 10:42:21;;;;;;;0.80;0.80;;;;;;;7.85;62.83;98870.38;6157875;23;20059;-88
2024/03/07 10:44:48;;;;;;;0.85;0.85;;;;;;;8.61;60.54;98857.56;6133593;23;20021;-88
2024/03/07 10:47:17;;;;;;;0.80;0.80;;;;;;;7.59;62.51;98856.00;6158945;23;20430;-89
2024/03/07 10:50:19;;;;;;;0.80;0.80;;;;;;;7.05;65.19;98860.72;6158288;23;20009;-89
2024/03/07 10:52:57;;;;;;;0.90;0.90;;;;;;;7.53;62.65;98851.34;6180389;23;20035;-90
2024/03/07 10:56:06;;;;;;;0.93;0.93;;;;;;;8.37;58.90;98846.88;6164311;23;20077;-91
2024/03/07 10:58:44;;;;;;;0.90;0.90;;;;;;;7.88;60.13;98850.16;6165670;23;20020;-89
2024/03/07 11:01:12;;;;;;;0.70;0.70;;;;;;;8.61;61.17;98846.00;6141202;23;20040;-89
2024/03/07 11:03:39;;;;;;;0.80;0.80;;;;;;;8.86;58.71;98843.47;6192491;23;20033;-90
2024/03/07 11:06:11;;;;;;;0.73;0.73;;;;;;;7.37;63.55;98846.19;6193897;23;20009;-91
2024/03/07 11:08:37;;;;;;;0.80;0.80;;;;;;;7.61;64.13;98847.25;6144273;23;20028;-91
2024/03/07 11:11:06;;;;;;;0.90;0.90;;;;;;;8.24;62.50;98833.94;6142828;23;20433;-90
2024/03/07 11:13:33;;;;;;;0.80;0.80;;;;;;;8.06;61.17;98841.16;6143137;23;20441;-90
2024/03/07 11:16:03;;;;;;;0.80;0.80;;;;;;;7.66;63.08;98835.06;6167134;23;20001;-90
2024/03/07 11:18:28;;;;;;;0.80;0.80;;;;;;;7.66;63.40;98828.84;6141412;23;20016;-90
2024/03/07 11:20:59;;;;;;;0.80;0.80;;;;;;;7.50;63.74;98839.69;6142305;23;20029;-90
2024/03/07 11:23:41;;;;;;;0.85;0.85;;;;;;;7.41;63.83;98832.22;6151451;23;20020;-89
2024/03/07 11:26:13;;;;;;;0.80;0.80;;;;;;;7.01;64.25;98826.94;6206661;23;20025;-90
2024/03/07 11:28:43;;;;;;;0.80;0.80;;;;;;;7.70;63.43;98817.53;6182824;23;20047;-91
2024/03/07 11:31:24;;;;;;;0.90;0.90;;;;;;;7.81;62.36;98820.63;6152558;23;20016;-90
2024/03/07 11:34:15;;;;;;;0.90;0.90;;;;;;;8.71;59.13;98805.63;6172694;23;20025;-92
2024/03/07 11:36:55;;;;;;;0.80;0.80;;;;;;;8.43;61.75;98807.25;6198650;23;20009;-91
2024/03/07 11:39:47;;;;;;;0.90;0.90;;;;;;;7.89;61.55;98809.47;6172119;23;20015;-90
2024/03/07 11:42:35;;;;;;;1.00;1.00;;;;;;;7.89;61.17;98796.19;6170455;23;20015;-91
2024/03/07 11:45:04;;;;;;;0.90;0.90;;;;;;;8.40;60.04;98792.94;6145888;23;20017;-90
2024/03/07 11:47:42;;;;;;;0.80;0.80;;;;;;;8.87;60.55;98789.41;6146371;23;20035;-91
2024/03/07 11:50:11;;;;;;;0.70;0.70;;;;;;;9.36;58.12;98788.47;6195849;23;20426;-92
2024/03/07 11:52:42;;;;;;;0.80;0.80;;;;;;;7.87;60.65;98797.88;6170463;23;20029;-90
2024/03/07 11:55:08;;;;;;;0.80;0.80;;;;;;;7.98;62.34;98782.38;6179178;23;20017;-91
2024/03/07 11:57:37;;;;;;;0.90;0.90;;;;;;;7.41;64.00;98787.09;6198403;23;20012;-91
2024/03/07 12:00:10;;;;;;;0.90;0.90;;;;;;;7.50;64.92;98786.59;6192024;23;20068;-91
2024/03/07 12:02:39;;;;;;;0.80;0.80;;;;;;;8.26;60.68;98779.06;6195447;23;20013;-90
2024/03/07 12:05:07;;;;;;;0.85;0.85;;;;;;;8.08;61.53;98778.34;6148830;23;20041;-89
2024/03/07 12:07:38;;;;;;;0.80;0.80;;;;;;;8.06;61.58;98790.66;6168830;23;20008;-91
2024/03/07 12:10:06;;;;;;;0.90;0.90;;;;;;;7.44;61.57;98787.25;6145805;23;20230;-91
2024/03/07 12:12:32;;;;;;;0.80;0.80;;;;;;;7.52;63.35;98779.56;6195914;23;20036;-90
2024/03/07 12:15:09;;;;;;;0.80;0.80;;;;;;;7.38;63.10;98785.25;6196705;23;20008;-90
2024/03/07 12:17:36;;;;;;;0.70;0.70;;;;;;;7.00;65.67;98782.69;6197900;23;20017;-91
2024/03/07 12:20:24;;;;;;;0.80;0.80;;;;;;;7.12;64.47;98778.78;6196721;23;20020;-93
2024/03/07 12:22:48;;;;;;;0.80;0.80;;;;;;;7.08;64.38;98776.84;6171484;23;20036;-91
2024/03/07 12:25:21;;;;;;;;;;;;;;;6.93;65.37;98786.78;6168696;23;20005;-91
2024/03/07 12:28:19;;;;;;;0.80;0.80;;;;;;;7.03;65.42;98786.34;6169018;23;19955;-89
2024/03/07 12:30:46;;;;;;;0.90;0.90;;;;;;;6.89;65.31;98782.19;6195838;23;20326;-90
2024/03/07 12:33:13;;;;;;;0.90;0.90;;;;;;;6.67;66.33;98783.00;6190379;23;20016;-90
2024/03/07 12:35:43;;;;;;;0.90;0.90;;;;;;;7.15;64.80;98772.72;6135648;23;20380;-90
2024/03/07 12:38:11;;;;;;;0.88;0.88;;;;;;;7.26;65.27;98775.84;6136523;23;20013;-90
2024/03/07 12:40:39;;;;;;;0.80;0.80;;;;;;;7.19;64.76;98774.69;6161764;23;20073;-91
2024/03/07 12:43:18;;;;;;;0.80;0.80;;;;;;;7.15;66.39;98770.97;6136040;23;20024;-90
2024/03/07 12:45:48;;;;;;;0.80;0.80;;;;;;;7.49;66.28;98771.50;6186934;23;20009;-91
2024/03/07 12:48:14;;;;;;;0.80;0.80;;;;;;;7.47;64.46;98766.13;6186630;23;20013;-90
2024/03/07 12:50:40;;;;;;;0.80;0.80;;;;;;;7.60;63.58;98756.91;6160576;23;20346;-90
2024/03/07 12:53:11;;;;;;;0.70;0.70;;;;;;;7.19;66.03;98758.75;6135510;23;20095;-89
2024/03/07 12:55:43;;;;;;;0.80;0.80;;;;;;;7.30;65.61;98764.53;6134063;23;20089;-88
2024/03/07 12:58:12;;;;;;;0.82;0.82;;;;;;;7.33;65.08;98762.91;6133380;23;20016;-89
2024/03/07 13:00:38;;;;;;;0.90;0.90;;;;;;;7.02;65.77;98760.69;6132293;23;20013;-89
2024/03/07 13:03:04;;;;;;;0.90;0.90;;;;;;;7.21;63.63;98754.41;6158097;23;20469;-88
2024/03/07 13:05:30;;;;;;;0.90;0.90;;;;;;;7.38;62.26;98753.38;6186134;23;20032;-88
2024/03/07 13:07:56;;;;;;;0.90;0.90;;;;;;;7.75;61.65;98746.91;6171902;23;20444;-89